createdAt,value
2022-11-26T00:00:54.507Z,100150.22
2022-11-26T00:03:22.556Z,100145.97
2022-11-26T00:05:52.201Z,100152.84
2022-11-26T00:08:33.358Z,100148.47
2022-11-26T00:11:01.878Z,100158.84
2022-11-26T00:13:31.819Z,100155.44
2022-11-26T00:15:59.278Z,100158.03
2022-11-26T00:18:26.985Z,100158.06
2022-11-26T00:21:01.373Z,100154.47
2022-11-26T00:23:29.244Z,100151.84
2022-11-26T00:26:17.789Z,100161.31
2022-11-26T00:28:58.326Z,100160.41
2022-11-26T00:31:27.464Z,100169.63
2022-11-26T00:33:57.060Z,100170.44
2022-11-26T00:36:31.968Z,100175.69
2022-11-26T00:39:24.093Z,100175.81
2022-11-26T00:41:53.836Z,100177.63
2022-11-26T00:44:24.360Z,100176.78
2022-11-26T00:46:52.353Z,100164.72
2022-11-26T00:49:21.276Z,100173.28
2022-11-26T00:51:57.101Z,100179.22
2022-11-26T00:54:25.364Z,100180.94
2022-11-26T00:56:52.873Z,100182.56
2022-11-26T00:59:22.795Z,100186.16
2022-11-26T01:01:50.874Z,100184.38
2022-11-26T01:04:19.254Z,100186.91
2022-11-26T01:06:46.864Z,100186.06
2022-11-26T01:09:18.823Z,100199.94
2022-11-26T01:11:50.917Z,100188.44
2022-11-26T01:14:22.378Z,100197.81
2022-11-26T01:16:57.465Z,100202.03
2022-11-26T01:19:25.081Z,100205.56
2022-11-26T01:21:52.438Z,100204.72
2022-11-26T01:24:19.862Z,100209.16
2022-11-26T01:26:46.880Z,100202.28
2022-11-26T01:29:16.550Z,100204.72
2022-11-26T01:31:44.195Z,100206.56
2022-11-26T01:34:11.338Z,100203.88
2022-11-26T01:36:40.875Z,100206.31
2022-11-26T01:39:19.229Z,100213.31
2022-11-26T01:42:13.353Z,100218.69
2022-11-26T01:44:40.753Z,100227.50
2022-11-26T01:47:40.444Z,100222.97
2022-11-26T01:50:32.466Z,100225.53
2022-11-26T01:53:09.818Z,100223.66
2022-11-26T01:55:45.217Z,100227.00
2022-11-26T01:58:19.001Z,100224.47
2022-11-26T02:00:49.178Z,100234.09
2022-11-26T02:03:18.463Z,100230.09
2022-11-26T02:05:56.774Z,100225.09
2022-11-26T02:08:32.287Z,100222.56
2022-11-26T02:10:59.514Z,100232.09
2022-11-26T02:13:27.163Z,100228.72
2022-11-26T02:16:15.341Z,100232.09
2022-11-26T02:18:52.134Z,100239.16
2022-11-26T02:21:28.447Z,100227.00
2022-11-26T02:24:15.858Z,100229.72
2022-11-26T02:27:00.754Z,100226.31
2022-11-26T02:30:06.777Z,100225.38
2022-11-26T02:32:39.615Z,100231.63
2022-11-26T02:35:29.318Z,100235.81
2022-11-26T02:38:01.573Z,100225.34
2022-11-26T02:40:29.606Z,100229.66
2022-11-26T02:42:57.266Z,100229.78
2022-11-26T02:45:28.967Z,100230.69
2022-11-26T02:47:59.994Z,100233.28
2022-11-26T02:50:35.319Z,100236.69
2022-11-26T02:53:04.837Z,100240.22
2022-11-26T02:55:40.420Z,100234.47
2022-11-26T02:58:08.104Z,100235.34
2022-11-26T03:00:38.315Z,100240.53
2022-11-26T03:03:40.376Z,100239.69
2022-11-26T03:06:11.884Z,100243.16
2022-11-26T03:08:39.244Z,100240.53
2022-11-26T03:11:07.119Z,100243.16
2022-11-26T03:13:34.703Z,100244.84
2022-11-26T03:16:02.039Z,100247.44
2022-11-26T03:18:29.475Z,100249.16
2022-11-26T03:20:57.071Z,100244.25
2022-11-26T03:23:25.357Z,100248.63
2022-11-26T03:26:05.743Z,100260.00
2022-11-26T03:28:33.124Z,100254.84
2022-11-26T03:31:00.621Z,100255.81
2022-11-26T03:33:28.055Z,100264.47
2022-11-26T03:35:55.416Z,100257.59
2022-11-26T03:38:22.434Z,100255.94
2022-11-26T03:40:58.328Z,100262.03
2022-11-26T03:43:26.624Z,100266.38
2022-11-26T03:45:54.106Z,100269.00
2022-11-26T03:48:21.864Z,100262.06
2022-11-26T03:50:56.058Z,100271.66
2022-11-26T03:53:24.684Z,100270.81
2022-11-26T03:55:53.021Z,100261.28
2022-11-26T03:58:22.218Z,100265.66
2022-11-26T04:00:49.499Z,100265.69
2022-11-26T04:03:17.222Z,100256.13
2022-11-26T04:05:45.354Z,100271.78
2022-11-26T04:08:13.764Z,100276.13
2022-11-26T04:10:40.857Z,100276.16
2022-11-26T04:13:07.867Z,100279.59
2022-11-26T04:15:35.361Z,100276.13
2022-11-26T04:18:02.774Z,100282.25
2022-11-26T04:20:30.200Z,100288.38
2022-11-26T04:22:57.610Z,100286.66
2022-11-26T04:25:26.395Z,100290.16
2022-11-26T04:27:53.466Z,100286.69
2022-11-26T04:30:20.726Z,100286.66
2022-11-26T04:32:47.991Z,100295.38
2022-11-26T04:35:15.613Z,100296.25
2022-11-26T04:37:42.833Z,100302.34
2022-11-26T04:40:11.660Z,100298.84
2022-11-26T04:42:46.350Z,100303.25
2022-11-26T04:45:13.572Z,100304.09
2022-11-26T04:47:43.105Z,100302.34
2022-11-26T04:50:13.512Z,100307.59
2022-11-26T04:52:41.225Z,100311.06
2022-11-26T04:55:08.956Z,100307.63
2022-11-26T04:57:36.405Z,100300.66
2022-11-26T05:00:05.739Z,100300.66
2022-11-26T05:02:33.895Z,100301.50
2022-11-26T05:05:01.312Z,100301.47
2022-11-26T05:07:28.830Z,100298.00
2022-11-26T05:09:56.267Z,100303.25
2022-11-26T05:12:23.753Z,100298.91
2022-11-26T05:14:51.122Z,100300.63
2022-11-26T05:17:19.002Z,100301.47
2022-11-26T05:19:48.091Z,100307.56
2022-11-26T05:22:16.564Z,100310.19
2022-11-26T05:24:45.019Z,100315.44
2022-11-26T05:27:11.991Z,100314.53
2022-11-26T05:29:38.972Z,100316.31
2022-11-26T05:32:06.449Z,100319.75
2022-11-26T05:34:40.891Z,100324.13
2022-11-26T05:37:08.673Z,100316.28
2022-11-26T05:39:37.067Z,100324.94
2022-11-26T05:42:08.910Z,100320.59
2022-11-26T05:44:37.416Z,100325.81
2022-11-26T05:47:04.940Z,100331.91
2022-11-26T05:49:31.948Z,100339.78
2022-11-26T05:52:00.105Z,100345.88
2022-11-26T05:54:27.327Z,100341.50
2022-11-26T05:56:59.938Z,100343.22
2022-11-26T05:59:27.987Z,100343.22
2022-11-26T06:01:55.421Z,100341.44
2022-11-26T06:04:23.083Z,100346.69
2022-11-26T06:06:50.196Z,100344.06
2022-11-26T06:09:19.347Z,100341.41
2022-11-26T06:11:46.654Z,100337.91
2022-11-26T06:14:14.607Z,100351.84
2022-11-26T06:16:42.726Z,100346.63
2022-11-26T06:19:11.565Z,100354.47
2022-11-26T06:21:38.821Z,100357.06
2022-11-26T06:24:08.118Z,100360.59
2022-11-26T06:26:36.538Z,100356.16
2022-11-26T06:29:05.052Z,100358.81
2022-11-26T06:31:33.362Z,100364.91
2022-11-26T06:34:00.618Z,100363.16
2022-11-26T06:36:27.997Z,100367.53
2022-11-26T06:38:55.543Z,100366.63
2022-11-26T06:41:22.809Z,100376.19
2022-11-26T06:43:50.366Z,100375.38
2022-11-26T06:46:17.781Z,100385.78
2022-11-26T06:48:45.241Z,100381.41
2022-11-26T06:51:15.814Z,100384.00
2022-11-26T06:53:43.482Z,100390.16
2022-11-26T06:56:18.410Z,100391.88
2022-11-26T06:58:47.737Z,100394.47
2022-11-26T07:01:18.855Z,100392.66
2022-11-26T07:03:47.033Z,100404.84
2022-11-26T07:06:25.877Z,100398.75
2022-11-26T07:08:54.614Z,100401.44
2022-11-26T07:11:24.157Z,100405.78
2022-11-26T07:13:51.849Z,100402.28
2022-11-26T07:16:20.476Z,100406.63
2022-11-26T07:18:57.693Z,100414.47
2022-11-26T07:21:34.360Z,100419.72
2022-11-26T07:24:01.251Z,100417.97
2022-11-26T07:26:28.243Z,100419.72
2022-11-26T07:28:55.798Z,100421.38
2022-11-26T07:31:24.088Z,100430.09
2022-11-26T07:33:52.456Z,100436.25
2022-11-26T07:36:24.563Z,100431.00
2022-11-26T07:38:58.004Z,100431.03
2022-11-26T07:41:28.384Z,100431.00
2022-11-26T07:43:55.871Z,100441.44
2022-11-26T07:46:25.995Z,100439.72
2022-11-26T07:48:59.932Z,100439.66
2022-11-26T07:51:32.986Z,100444.91
2022-11-26T07:54:08.574Z,100444.06
2022-11-26T07:56:36.746Z,100453.63
2022-11-26T07:59:04.194Z,100449.31
2022-11-26T08:01:32.980Z,100451.94
2022-11-26T08:04:01.150Z,100457.97
2022-11-26T08:06:30.386Z,100462.34
2022-11-26T08:09:00.504Z,100460.56
2022-11-26T08:11:30.275Z,100467.63
2022-11-26T08:14:01.165Z,100471.09
2022-11-26T08:16:29.394Z,100458.81
2022-11-26T08:19:05.509Z,100465.81
2022-11-26T08:21:33.720Z,100470.16
2022-11-26T08:24:08.199Z,100469.28
2022-11-26T08:26:42.452Z,100471.88
2022-11-26T08:29:14.877Z,100469.22
2022-11-26T08:31:46.471Z,100483.16
2022-11-26T08:34:16.226Z,100484.88
2022-11-26T08:36:45.653Z,100485.72
2022-11-26T08:39:18.112Z,100490.97
2022-11-26T08:41:50.568Z,100491.84
2022-11-26T08:44:19.593Z,100493.53
2022-11-26T08:46:49.186Z,100490.91
2022-11-26T08:49:17.302Z,100497.84
2022-11-26T08:51:44.716Z,100498.72
2022-11-26T08:54:12.345Z,100495.19
2022-11-26T08:56:39.962Z,100509.16
2022-11-26T08:59:07.107Z,100503.03
2022-11-26T09:01:34.825Z,100499.47
2022-11-26T09:04:03.715Z,100505.56
2022-11-26T09:06:33.372Z,100506.41
2022-11-26T09:09:13.719Z,100509.00
2022-11-26T09:11:45.902Z,100519.50
2022-11-26T09:14:14.195Z,100517.66
2022-11-26T09:16:42.438Z,100522.09
2022-11-26T09:19:14.399Z,100514.16
2022-11-26T09:21:41.953Z,100526.34
2022-11-26T09:24:09.347Z,100521.09
2022-11-26T09:26:37.081Z,100532.50
2022-11-26T09:29:06.706Z,100533.31
2022-11-26T09:31:33.724Z,100535.97
2022-11-26T09:34:02.350Z,100533.28
2022-11-26T09:36:32.033Z,100535.03
2022-11-26T09:38:59.966Z,100529.81
2022-11-26T09:42:07.117Z,100534.13
2022-11-26T09:45:03.029Z,100532.28
2022-11-26T09:47:39.505Z,100536.66
2022-11-26T09:50:06.804Z,100534.91
2022-11-26T09:53:01.946Z,100541.91
2022-11-26T09:55:40.663Z,100532.28
2022-11-26T09:58:34.827Z,100533.09
2022-11-26T10:01:04.415Z,100537.38
2022-11-26T10:03:35.315Z,100540.03
2022-11-26T10:06:36.074Z,100535.63
2022-11-26T10:09:35.998Z,100536.44
2022-11-26T10:12:25.886Z,100535.50
2022-11-26T10:14:56.736Z,100536.34
2022-11-26T10:17:26.796Z,100539.88
2022-11-26T10:20:18.845Z,100546.88
2022-11-26T10:22:57.388Z,100548.53
2022-11-26T10:25:31.447Z,100550.91
2022-11-26T10:27:59.638Z,100549.06
2022-11-26T10:30:30.523Z,100551.50
2022-11-26T10:33:02.837Z,100549.66
2022-11-26T10:35:30.407Z,100544.34
2022-11-26T10:37:58.324Z,100551.09
2022-11-26T10:40:32.558Z,100535.28
2022-11-26T10:43:08.813Z,100536.97
2022-11-26T10:45:44.457Z,100535.31
2022-11-26T10:48:37.813Z,100537.94
2022-11-26T10:51:26.414Z,100536.84
2022-11-26T10:54:05.232Z,100536.06
2022-11-26T10:56:42.347Z,100542.00
2022-11-26T10:59:30.667Z,100533.91
2022-11-26T11:02:04.518Z,100541.81
2022-11-26T11:04:40.876Z,100543.53
2022-11-26T11:07:39.073Z,100537.25
2022-11-26T11:10:14.316Z,100532.09
2022-11-26T11:12:50.255Z,100540.78
2022-11-26T11:15:27.685Z,100545.09
2022-11-26T11:18:05.385Z,100543.56
2022-11-26T11:20:40.727Z,100548.69
2022-11-26T11:23:11.227Z,100552.47
2022-11-26T11:25:46.327Z,100555.25
2022-11-26T11:28:20.587Z,100543.03
2022-11-26T11:30:59.915Z,100549.19
2022-11-26T11:33:28.947Z,100551.06
2022-11-26T11:36:01.667Z,100552.84
2022-11-26T11:38:32.135Z,100552.91
2022-11-26T11:41:03.827Z,100558.06
2022-11-26T11:43:36.506Z,100556.34
2022-11-26T11:46:37.607Z,100551.94
2022-11-26T11:49:30.426Z,100555.50
2022-11-26T11:52:20.785Z,100566.19
2022-11-26T11:55:00.515Z,100553.16
2022-11-26T11:57:53.293Z,100565.47
2022-11-26T12:00:26.632Z,100569.16
2022-11-26T12:02:57.551Z,100572.59
2022-11-26T12:05:37.666Z,100573.53
2022-11-26T12:08:22.305Z,100568.31
2022-11-26T12:11:13.546Z,100572.66
2022-11-26T12:13:48.635Z,100578.09
2022-11-26T12:16:19.180Z,100573.59
2022-11-26T12:18:55.478Z,100570.00
2022-11-26T12:22:17.226Z,100578.94
2022-11-26T12:24:51.183Z,100580.66
2022-11-26T12:27:28.027Z,100586.00
2022-11-26T12:30:13.467Z,100581.53
2022-11-26T12:32:54.188Z,100594.78
2022-11-26T12:35:52.957Z,100585.88
2022-11-26T12:38:29.044Z,100585.91
2022-11-26T12:41:11.567Z,100581.44
2022-11-26T12:44:02.203Z,100587.59
2022-11-26T12:46:58.404Z,100592.06
2022-11-26T12:49:30.533Z,100597.25
2022-11-26T12:52:09.804Z,100588.50
2022-11-26T12:54:54.976Z,100584.09
2022-11-26T12:57:30.970Z,100586.69
2022-11-26T13:00:25.616Z,100587.56
2022-11-26T13:02:55.335Z,100591.94
2022-11-26T13:05:48.589Z,100593.78
2022-11-26T13:08:27.251Z,100586.72
2022-11-26T13:11:45.443Z,100588.44
2022-11-26T13:14:12.363Z,100593.72
2022-11-26T13:17:10.123Z,100592.03
2022-11-26T13:19:56.242Z,100594.63
2022-11-26T13:23:02.086Z,100599.13
2022-11-26T13:25:51.699Z,100600.00
2022-11-26T13:28:47.811Z,100599.19
2022-11-26T13:31:37.345Z,100607.91
2022-11-26T13:34:18.073Z,100609.63
2022-11-26T13:37:21.784Z,100617.47
2022-11-26T13:39:48.693Z,100618.25
2022-11-26T13:42:43.034Z,100628.78
2022-11-26T13:45:19.024Z,100627.97
2022-11-26T13:47:55.995Z,100635.06
2022-11-26T13:50:44.944Z,100635.13
2022-11-26T13:53:38.731Z,100640.41
2022-11-26T13:56:09.945Z,100636.94
2022-11-26T13:58:52.505Z,100638.78
2022-11-26T14:01:37.384Z,100634.44
2022-11-26T14:04:24.784Z,100643.28
2022-11-26T14:07:04.657Z,100640.72
2022-11-26T14:09:44.637Z,100656.50
2022-11-26T14:12:13.234Z,100662.66
2022-11-26T14:14:42.415Z,100660.94
2022-11-26T14:17:32.487Z,100661.78
2022-11-26T14:20:04.133Z,100663.53
2022-11-26T14:22:34.242Z,100666.19
2022-11-26T14:25:10.440Z,100674.09
2022-11-26T14:27:42.562Z,100679.38
2022-11-26T14:30:09.834Z,100682.00
2022-11-26T14:33:04.660Z,100675.88
2022-11-26T14:35:40.748Z,100680.31
2022-11-26T14:38:24.027Z,100679.44
2022-11-26T14:41:01.553Z,100677.69
2022-11-26T14:43:29.837Z,100685.59
2022-11-26T14:46:17.774Z,100687.34
2022-11-26T14:48:48.040Z,100685.59
2022-11-26T14:51:26.846Z,100692.59
2022-11-26T14:53:57.267Z,100694.31
2022-11-26T14:56:26.146Z,100694.38
2022-11-26T14:58:57.786Z,100699.63
2022-11-26T15:01:27.139Z,100697.03
2022-11-26T15:03:59.006Z,100700.59
2022-11-26T15:06:35.200Z,100707.63
2022-11-26T15:09:08.320Z,100712.84
2022-11-26T15:11:38.241Z,100718.97
2022-11-26T15:14:05.804Z,100720.72
2022-11-26T15:16:36.964Z,100718.97
2022-11-26T15:19:06.043Z,100725.97
2022-11-26T15:21:34.764Z,100731.19
2022-11-26T15:24:09.491Z,100734.72
2022-11-26T15:26:38.760Z,100730.34
2022-11-26T15:29:34.200Z,100734.75
2022-11-26T15:32:01.680Z,100740.00
2022-11-26T15:34:30.730Z,100745.22
2022-11-26T15:37:00.524Z,100747.81
2022-11-26T15:39:36.067Z,100750.41
2022-11-26T15:42:21.828Z,100753.91
2022-11-26T15:44:50.028Z,100755.69
2022-11-26T15:47:20.669Z,100752.22
2022-11-26T15:49:53.044Z,100757.47
2022-11-26T15:52:25.348Z,100752.22
2022-11-26T15:55:21.883Z,100759.25
2022-11-26T15:57:52.149Z,100752.25
2022-11-26T16:00:27.308Z,100760.13
2022-11-26T16:02:54.796Z,100769.78
2022-11-26T16:05:39.710Z,100762.75
2022-11-26T16:08:31.079Z,100765.44
2022-11-26T16:11:19.717Z,100774.16
2022-11-26T16:13:48.081Z,100780.31
2022-11-26T16:16:20.569Z,100781.19
2022-11-26T16:18:56.278Z,100774.22
2022-11-26T16:21:28.995Z,100778.59
2022-11-26T16:24:08.443Z,100779.50
2022-11-26T16:26:55.308Z,100776.88
2022-11-26T16:29:22.396Z,100781.22
2022-11-26T16:31:49.516Z,100788.22
2022-11-26T16:34:16.788Z,100796.09
2022-11-26T16:36:44.508Z,100790.88
2022-11-26T16:39:16.837Z,100792.59
2022-11-26T16:41:44.225Z,100792.59
2022-11-26T16:44:11.277Z,100784.75
2022-11-26T16:46:41.277Z,100793.53
2022-11-26T16:49:11.237Z,100792.66
2022-11-26T16:51:39.076Z,100801.38
2022-11-26T16:54:08.226Z,100810.13
2022-11-26T16:56:38.761Z,100814.53
2022-11-26T16:59:14.389Z,100806.66
2022-11-26T17:01:41.874Z,100815.34
2022-11-26T17:04:11.865Z,100817.09
2022-11-26T17:06:39.751Z,100820.63
2022-11-26T17:09:06.721Z,100821.47
2022-11-26T17:11:34.145Z,100817.97
2022-11-26T17:14:03.465Z,100822.38
2022-11-26T17:16:32.956Z,100821.47
2022-11-26T17:19:09.745Z,100832.00
2022-11-26T17:21:39.139Z,100825.84
2022-11-26T17:24:06.584Z,100831.09
2022-11-26T17:26:34.040Z,100830.25
2022-11-26T17:29:07.833Z,100830.25
2022-11-26T17:31:37.744Z,100836.38
2022-11-26T17:34:04.945Z,100831.09
2022-11-26T17:36:36.612Z,100829.38
2022-11-26T17:39:04.744Z,100832.84
2022-11-26T17:41:32.903Z,100838.97
2022-11-26T17:43:59.955Z,100839.00
2022-11-26T17:46:27.793Z,100845.97
2022-11-26T17:48:59.634Z,100841.59
2022-11-26T17:51:28.783Z,100832.88
2022-11-26T17:53:56.333Z,100830.25
2022-11-26T17:56:27.719Z,100839.88
2022-11-26T17:59:00.265Z,100840.75
2022-11-26T18:01:28.804Z,100844.22
2022-11-26T18:03:56.397Z,100848.59
2022-11-26T18:06:55.393Z,100845.97
2022-11-26T18:09:22.589Z,100852.09
2022-11-26T18:11:52.952Z,100859.09
2022-11-26T18:14:21.156Z,100850.34
2022-11-26T18:16:49.455Z,100845.09
2022-11-26T18:19:17.995Z,100849.47
2022-11-26T18:21:45.704Z,100851.22
2022-11-26T18:24:13.994Z,100860.84
2022-11-26T18:26:42.259Z,100859.06
2022-11-26T18:29:12.112Z,100867.75
2022-11-26T18:31:39.984Z,100858.16
2022-11-26T18:34:08.109Z,100854.69
2022-11-26T18:36:35.473Z,100853.81
2022-11-26T18:39:04.943Z,100853.81
2022-11-26T18:41:33.076Z,100856.47
2022-11-26T18:44:02.102Z,100851.22
2022-11-26T18:46:29.694Z,100860.81
2022-11-26T18:48:58.075Z,100863.47
2022-11-26T18:51:25.912Z,100861.72
2022-11-26T18:53:53.521Z,100863.44
2022-11-26T18:56:24.998Z,100865.19
2022-11-26T18:58:52.864Z,100865.19
2022-11-26T19:01:31.055Z,100861.72
2022-11-26T19:03:59.637Z,100860.81
2022-11-26T19:06:34.472Z,100861.72
2022-11-26T19:09:06.624Z,100859.97
2022-11-26T19:11:34.506Z,100853.84
2022-11-26T19:14:02.343Z,100866.06
2022-11-26T19:16:29.773Z,100863.44
2022-11-26T19:18:57.711Z,100874.78
2022-11-26T19:21:28.396Z,100865.19
2022-11-26T19:23:58.595Z,100872.19
2022-11-26T19:26:26.424Z,100866.06
2022-11-26T19:28:54.382Z,100870.44
2022-11-26T19:31:24.755Z,100878.28
2022-11-26T19:33:58.758Z,100883.56
2022-11-26T19:36:27.664Z,100878.31
2022-11-26T19:39:02.672Z,100879.19
2022-11-26T19:41:31.794Z,100881.78
2022-11-26T19:44:04.424Z,100882.66
2022-11-26T19:46:33.053Z,100897.47
2022-11-26T19:49:01.072Z,100895.69
2022-11-26T19:51:28.954Z,100895.69
2022-11-26T19:53:58.198Z,100893.06
2022-11-26T19:56:35.859Z,100901.88
2022-11-26T19:59:04.682Z,100894.03
2022-11-26T20:01:34.793Z,100900.97
2022-11-26T20:04:05.542Z,100902.75
2022-11-26T20:06:35.602Z,100910.56
2022-11-26T20:09:05.594Z,100912.28
2022-11-26T20:11:36.926Z,100916.63
2022-11-26T20:14:05.168Z,100917.53
2022-11-26T20:16:33.368Z,100917.56
2022-11-26T20:19:03.150Z,100916.69
2022-11-26T20:21:34.276Z,100914.97
2022-11-26T20:24:05.914Z,100921.94
2022-11-26T20:26:40.636Z,100914.94
2022-11-26T20:29:12.586Z,100922.75
2022-11-26T20:31:46.274Z,100922.78
2022-11-26T20:34:26.365Z,100928.06
2022-11-26T20:36:55.034Z,100926.31
2022-11-26T20:39:24.635Z,100922.78
2022-11-26T20:41:52.592Z,100922.69
2022-11-26T20:44:20.433Z,100923.63
2022-11-26T20:46:48.086Z,100928.88
2022-11-26T20:49:16.827Z,100920.97
2022-11-26T20:51:44.543Z,100918.34
2022-11-26T20:54:18.368Z,100921.81
2022-11-26T20:56:47.508Z,100920.13
2022-11-26T20:59:15.429Z,100918.38
2022-11-26T21:01:43.039Z,100914.91
2022-11-26T21:04:10.350Z,100920.09
2022-11-26T21:06:37.905Z,100915.72
2022-11-26T21:09:07.891Z,100915.75
2022-11-26T21:11:36.284Z,100918.34
2022-11-26T21:14:09.525Z,100921.00
2022-11-26T21:16:40.487Z,100918.34
2022-11-26T21:19:13.474Z,100926.22
2022-11-26T21:21:41.074Z,100918.41
2022-11-26T21:24:09.184Z,100920.16
2022-11-26T21:26:37.513Z,100925.38
2022-11-26T21:29:29.865Z,100912.28
2022-11-26T21:31:59.626Z,100921.88
2022-11-26T21:34:26.904Z,100922.72
2022-11-26T21:36:53.906Z,100930.56
2022-11-26T21:39:21.338Z,100918.38
2022-11-26T21:41:48.814Z,100923.63
2022-11-26T21:44:15.974Z,100927.16
2022-11-26T21:46:43.218Z,100923.72
2022-11-26T21:49:11.050Z,100916.75
2022-11-26T21:51:38.137Z,100918.47
2022-11-26T21:54:05.882Z,100922.88
2022-11-26T21:56:33.819Z,100922.84
2022-11-26T21:59:02.185Z,100923.75
2022-11-26T22:01:32.184Z,100928.94
2022-11-26T22:04:02.882Z,100925.47
2022-11-26T22:06:31.311Z,100937.69
2022-11-26T22:09:00.623Z,100934.16
2022-11-26T22:11:31.948Z,100930.66
2022-11-26T22:13:59.348Z,100936.75
2022-11-26T22:16:27.833Z,100928.94
2022-11-26T22:18:56.564Z,100926.34
2022-11-26T22:21:27.052Z,100928.06
2022-11-26T22:23:54.487Z,100924.56
2022-11-26T22:26:22.588Z,100927.19
2022-11-26T22:28:51.081Z,100932.44
2022-11-26T22:31:22.471Z,100935.06
2022-11-26T22:33:54.065Z,100930.72
2022-11-26T22:36:21.607Z,100924.63
2022-11-26T22:38:48.953Z,100926.34
2022-11-26T22:41:16.546Z,100924.63
2022-11-26T22:43:45.330Z,100926.34
2022-11-26T22:46:19.374Z,100927.22
2022-11-26T22:48:52.344Z,100927.22
2022-11-26T22:51:20.696Z,100924.63
2022-11-26T22:53:59.808Z,100924.59
2022-11-26T22:56:27.923Z,100916.72
2022-11-26T22:58:55.299Z,100915.84
2022-11-26T23:01:28.525Z,100927.22
2022-11-26T23:03:58.527Z,100932.50
2022-11-26T23:06:28.155Z,100929.00
2022-11-26T23:08:59.114Z,100923.78
2022-11-26T23:11:33.072Z,100925.53
2022-11-26T23:14:02.324Z,100924.66
2022-11-26T23:16:30.778Z,100922.00
2022-11-26T23:18:58.469Z,100925.50
2022-11-26T23:21:34.717Z,100922.00
2022-11-26T23:24:02.223Z,100920.25
2022-11-26T23:26:33.293Z,100930.75
2022-11-26T23:29:01.940Z,100921.13
2022-11-26T23:31:33.084Z,100920.22
2022-11-26T23:34:00.704Z,100915.00
2022-11-26T23:36:29.425Z,100915.88
2022-11-26T23:38:56.894Z,100914.97
2022-11-26T23:41:23.974Z,100920.25
2022-11-26T23:43:52.619Z,100911.50
2022-11-26T23:46:22.905Z,100922.00
2022-11-26T23:48:50.876Z,100924.59
2022-11-26T23:51:22.079Z,100925.47
2022-11-26T23:53:50.908Z,100916.78
2022-11-26T23:56:26.310Z,100921.13
2022-11-26T23:59:02.985Z,100927.25
